Time;durP1;ratioP1;P1;durP2;ratioP2;P2;SDS_P1;SDS_P2;PMS_P1;PMS_P2;Temp;Humidity;BMP_temperature;BMP_pressure;BME280_temperature;BME280_humidity;BME280_pressure;Samples;Min_cycle;Max_cycle;Signal;HPM_P1;HPM_P2
2022/01/21 00:00:57;;;;;;;4.53;2.95;;;;;;;13.64;53.56;97940.55;1741730;81;21037;-62
2022/01/21 00:03:24;;;;;;;4.10;2.70;;;;;;;13.65;52.33;97952.89;1740579;81;21081;-62
2022/01/21 00:05:50;;;;;;;17.55;3.70;;;;;;;13.74;54.94;97961.41;1744070;81;21062;-62
2022/01/21 00:08:16;;;;;;;4.92;3.17;;;;;;;19.27;69.97;97936.48;1742603;81;20972;-62
2022/01/21 00:10:43;;;;;;;5.92;3.55;;;;;;;14.89;54.63;97950.63;1735017;81;20989;-63
2022/01/21 00:13:33;;;;;;;5.35;2.83;;;;;;;14.35;54.15;97962.45;1753331;80;20946;-62
2022/01/21 00:15:47;;;;;;;5.25;3.00;;;;;;;13.96;74.95;97958.50;1739862;81;21113;-63
2022/01/21 00:18:13;;;;;;;7.42;3.60;;;;;;;13.88;49.45;97955.64;1743644;81;20942;-63
2022/01/21 00:31:39;;;;;;;6.40;3.98;;;;;;;13.70;46.34;97969.56;1741660;81;20989;-61
2022/01/21 00:34:05;;;;;;;4.67;3.33;;;;;;;13.68;44.42;97963.64;1735059;81;20922;-62
2022/01/21 00:36:33;;;;;;;7.90;3.77;;;;;;;13.66;43.43;97971.08;1744630;81;21015;-63
2022/01/21 00:38:59;;;;;;;6.40;3.00;;;;;;;13.52;54.27;97964.56;1738798;81;20915;-63
2022/01/21 00:41:30;;;;;;;4.80;3.35;;;;;;;14.98;41.46;97954.56;1723286;82;23276;-63
2022/01/21 00:43:54;;;;;;;6.78;3.55;;;;;;;14.92;39.86;97950.95;1737507;82;21006;-62
2022/01/21 00:46:21;;;;;;;5.45;3.20;;;;;;;14.91;39.73;97956.04;1740151;82;20994;-63
2022/01/21 00:48:48;;;;;;;4.35;3.15;;;;;;;14.84;39.75;97957.48;1732834;82;20967;-63
2022/01/21 00:51:14;;;;;;;3.67;3.00;;;;;;;14.48;40.25;97960.91;1731788;82;20931;-63
2022/01/21 00:53:41;;;;;;;4.47;3.20;;;;;;;14.46;40.14;97966.50;1739922;82;21831;-63
2022/01/21 00:56:07;;;;;;;4.30;3.27;;;;;;;14.53;40.03;97963.19;1741529;82;20993;-63
2022/01/21 00:58:35;;;;;;;4.50;3.00;;;;;;;14.66;39.68;97959.46;1739916;82;21045;-63
2022/01/21 01:01:01;;;;;;;6.17;2.47;;;;;;;14.85;39.20;97962.32;1736488;81;20997;-63
2022/01/21 01:03:28;;;;;;;3.30;2.33;;;;;;;14.88;44.48;97957.02;1731955;82;21068;-63
2022/01/21 01:05:56;;;;;;;4.60;2.60;;;;;;;14.96;38.89;97960.69;1732468;82;21422;-62
2022/01/21 01:08:23;;;;;;;3.67;2.35;;;;;;;14.86;38.71;97960.46;1738066;82;20990;-63
2022/01/21 01:21:37;;;;;;;;;;;;;;;14.93;37.57;97958.47;1727765;82;20942;-63
2022/01/21 01:27:36;;;;;;;4.40;2.25;;;;;;;14.84;37.46;97968.19;1738066;82;20444;-62
2022/01/21 01:29:18;;;;;;;4.65;2.35;;;;;;;14.72;37.17;97964.72;1733378;82;21480;-63
2022/01/21 01:31:45;;;;;;;4.92;2.05;;;;;;;14.71;36.90;97960.39;1729147;82;21140;-62
2022/01/21 01:34:12;;;;;;;3.27;2.05;;;;;;;14.75;37.00;97965.59;1731548;82;21013;-63
2022/01/21 01:36:40;;;;;;;2.67;1.80;;;;;;;14.87;36.75;97948.69;1747377;82;20998;-62
2022/01/21 01:39:14;;;;;;;3.90;2.40;;;;;;;14.90;36.71;97965.11;1737820;81;20942;-63
2022/01/21 01:41:42;;;;;;;3.08;2.15;;;;;;;14.82;36.44;97950.22;1734214;81;21684;-63
2022/01/21 01:49:38;;;;;;;3.37;1.70;;;;;;;14.89;35.91;97950.63;1745015;81;20942;-64
2022/01/21 01:52:11;;;;;;;2.95;1.55;;;;;;;15.04;35.68;97945.60;1753569;81;20974;-63
2022/01/21 01:54:42;;;;;;;2.85;1.52;;;;;;;14.88;48.22;97947.65;1748339;81;27420;-63
2022/01/21 01:57:09;;;;;;;4.10;2.33;;;;;;;15.20;37.95;97948.89;1750807;81;21170;-63
2022/01/21 01:59:35;;;;;;;4.12;2.33;;;;;;;15.17;37.36;97950.70;1747378;81;21449;-62
2022/01/21 02:02:06;;;;;;;2.85;1.82;;;;;;;14.50;37.63;97950.78;1755768;81;21029;-62
2022/01/21 02:04:34;;;;;;;4.22;1.87;;;;;;;14.35;37.17;97953.92;1741474;81;20938;-65
2022/01/21 02:07:03;;;;;;;4.30;1.95;;;;;;;14.32;37.86;97958.90;1737254;81;21066;-63
2022/01/21 02:09:32;;;;;;;3.75;1.82;;;;;;;19.40;30.98;97931.17;1746363;81;20919;-62
2022/01/21 02:11:58;;;;;;;4.00;1.67;;;;;;;19.39;29.01;97935.77;1747555;81;20847;-62
2022/01/21 02:14:33;;;;;;;4.25;2.08;;;;;;;19.73;28.39;97936.95;1749121;81;21032;-63
2022/01/21 02:22:13;;;;;;;;;;;;;;;22.71;49.71;97945.59;1742740;81;21858;-62
2022/01/21 02:25:11;;;;;;;3.60;2.37;;;;;;;25.85;23.05;97933.78;1753823;81;20071;-62
2022/01/21 02:27:23;;;;;;;3.62;2.87;;;;;;;26.17;22.49;97933.64;1734804;81;21504;-62
2022/01/21 02:29:59;;;;;;;6.03;3.62;;;;;;;26.34;34.62;97919.33;1749148;81;20963;-62
2022/01/21 02:32:21;;;;;;;3.58;2.72;;;;;;;25.05;26.61;97930.77;1744127;81;21549;-62
2022/01/21 02:34:48;;;;;;;5.05;3.47;;;;;;;23.94;24.60;97933.34;1744288;81;21141;-62
2022/01/21 02:37:18;;;;;;;5.70;3.20;;;;;;;24.00;23.98;97925.12;1739546;81;21002;-63
2022/01/21 02:39:44;;;;;;;6.42;3.27;;;;;;;24.45;25.28;97927.98;1745404;81;20969;-62
2022/01/21 02:42:13;;;;;;;4.03;2.50;;;;;;;23.83;25.46;97929.15;1742112;81;20997;-64
2022/01/21 02:44:40;;;;;;;3.80;2.77;;;;;;;23.75;24.50;97923.59;1751494;81;21079;-62
2022/01/21 02:47:08;;;;;;;4.45;2.60;;;;;;;23.83;24.39;97919.64;1751657;81;21772;-62
2022/01/21 02:49:37;;;;;;;4.35;3.02;;;;;;;30.51;72.31;97908.27;1745278;81;20985;-63
2022/01/21 02:52:06;;;;;;;5.97;3.00;;;;;;;30.24;21.83;97894.30;1737700;81;21483;-61
2022/01/21 02:54:34;;;;;;;4.90;3.45;;;;;;;29.93;17.72;97900.20;1750286;81;37793;-62
2022/01/21 02:57:03;;;;;;;5.42;3.45;;;;;;;29.45;20.50;97904.73;1747775;81;20943;-62
2022/01/21 02:59:30;;;;;;;3.50;2.58;;;;;;;27.25;22.85;97912.88;1751609;81;21417;-64
2022/01/21 03:01:57;;;;;;;3.30;2.40;;;;;;;26.83;23.57;97910.20;1739830;81;20997;-63
2022/01/21 03:04:56;;;;;;;4.10;2.65;;;;;;;26.94;25.09;97911.55;1735540;81;20985;-62
2022/01/21 03:06:52;;;;;;;7.28;3.10;;;;;;;27.53;23.54;97900.66;1736662;81;21121;-62
2022/01/21 03:09:18;;;;;;;4.78;2.67;;;;;;;27.48;20.41;97892.59;1743172;81;20898;-63
2022/01/21 03:11:44;;;;;;;5.55;2.60;;;;;;;27.57;23.83;97905.72;1733673;81;21279;-63
2022/01/21 03:14:11;;;;;;;4.17;2.85;;;;;;;27.35;24.19;97905.80;1745069;81;21512;-62
2022/01/21 03:16:37;;;;;;;4.17;2.22;;;;;;;27.56;23.45;97895.91;1751037;81;21558;-62
2022/01/21 03:19:03;;;;;;;5.33;2.95;;;;;;;27.27;42.98;97910.67;1752449;81;20907;-63
2022/01/21 03:21:31;;;;;;;4.80;3.45;;;;;;;33.68;16.94;97890.72;1735327;81;21041;-64
2022/01/21 03:23:58;;;;;;;4.80;2.80;;;;;;;32.86;16.07;97891.39;1742301;81;22280;-63
2022/01/21 03:26:26;;;;;;;4.95;2.65;;;;;;;32.41;15.86;97881.27;1740578;81;20942;-62
2022/01/21 03:28:55;;;;;;;7.15;2.92;;;;;;;32.82;15.59;97889.14;1743680;81;20958;-62
2022/01/21 03:31:22;;;;;;;3.05;2.40;;;;;;;32.20;15.85;97888.95;1708690;82;21107;-62
2022/01/21 03:33:49;;;;;;;3.83;2.60;;;;;;;32.00;17.49;97894.83;1746796;81;20886;-63
2022/01/21 03:36:16;;;;;;;4.37;2.50;;;;;;;31.91;21.89;97902.97;1743332;81;21817;-63
2022/01/21 03:38:43;;;;;;;4.47;2.58;;;;;;;30.88;16.63;97900.14;1746335;81;20946;-62
2022/01/21 03:41:09;;;;;;;4.90;2.45;;;;;;;30.40;20.12;97899.44;1733957;81;21567;-63
2022/01/21 03:43:35;;;;;;;4.97;2.65;;;;;;;31.26;20.70;97897.15;1743125;81;20902;-63
2022/01/21 03:46:03;;;;;;;4.40;2.52;;;;;;;31.10;18.63;97895.05;1726431;81;21430;-62
2022/01/21 03:48:30;;;;;;;3.50;2.65;;;;;;;31.01;22.00;97895.74;1737124;81;21227;-62
2022/01/21 03:50:57;;;;;;;4.08;2.33;;;;;;;30.53;19.43;97895.01;1746628;81;20986;-63
2022/01/21 03:53:23;;;;;;;7.78;3.17;;;;;;;30.24;16.91;97871.80;1741285;81;21551;-62
2022/01/21 03:55:50;;;;;;;5.30;3.30;;;;;;;29.94;17.59;97893.56;1746392;81;21017;-63
2022/01/21 03:58:16;;;;;;;4.15;2.60;;;;;;;29.60;16.80;97882.23;1748814;81;20930;-62
2022/01/21 04:00:49;;;;;;;6.67;2.83;;;;;;;29.58;16.62;97888.63;1745330;81;21079;-62
2022/01/21 04:03:15;;;;;;;5.75;2.60;;;;;;;29.72;16.42;97902.09;1741414;81;20930;-63
2022/01/21 04:05:42;;;;;;;6.85;3.30;;;;;;;29.66;16.41;97899.30;1748155;81;21567;-63
2022/01/21 04:08:09;;;;;;;5.00;2.72;;;;;;;28.65;17.06;97890.60;1741484;81;20981;-62
2022/01/21 04:10:38;;;;;;;5.40;3.02;;;;;;;27.99;17.48;97902.25;1739838;81;20946;-62
2022/01/21 04:13:07;;;;;;;5.75;3.22;;;;;;;27.28;17.96;97903.52;1724594;82;21189;-63
2022/01/21 04:15:33;;;;;;;5.83;2.83;;;;;;;27.25;17.95;97893.22;1701205;82;21501;-63
2022/01/21 04:17:59;;;;;;;8.05;3.52;;;;;;;27.99;17.34;97880.39;1726458;82;20946;-64
2022/01/21 04:20:26;;;;;;;5.97;2.98;;;;;;;28.11;17.23;97882.49;1731218;82;20946;-63
2022/01/21 04:22:53;;;;;;;3.87;2.70;;;;;;;27.82;17.84;97877.62;1737546;81;21112;-62
2022/01/21 04:25:20;;;;;;;5.70;3.60;;;;;;;27.88;17.46;97888.66;1725078;82;21249;-63
2022/01/21 04:27:47;;;;;;;6.72;3.30;;;;;;;27.60;17.71;97897.45;1723375;81;20879;-62
2022/01/21 04:30:14;;;;;;;5.65;2.87;;;;;;;27.61;17.64;97891.66;1723085;81;21056;-63
2022/01/21 04:32:40;;;;;;;6.83;3.37;;;;;;;27.55;17.58;97897.05;1724503;83;21033;-63
2022/01/21 04:35:08;;;;;;;6.42;3.05;;;;;;;26.64;18.15;97907.69;1741786;81;21468;-62
2022/01/21 04:37:38;;;;;;;6.25;3.42;;;;;;;26.57;18.25;97899.11;1715489;81;22382;-63
2022/01/21 04:40:10;;;;;;;6.22;2.98;;;;;;;26.75;18.31;97914.47;1725487;81;21009;-63
2022/01/21 04:48:05;;;;;;;5.28;3.02;;;;;;;26.64;18.27;97900.05;1686802;83;20995;-65
2022/01/21 04:50:40;;;;;;;3.65;2.80;;;;;;;26.83;18.15;97916.47;1722713;81;21197;-63
2022/01/21 04:53:01;;;;;;;5.28;3.40;;;;;;;26.82;18.16;97912.70;1715462;83;20857;-64
2022/01/21 04:55:34;;;;;;;6.58;3.05;;;;;;;26.74;17.96;97910.70;1718295;81;21006;-63
2022/01/21 04:58:01;;;;;;;6.58;3.33;;;;;;;27.04;18.10;97916.73;1720340;81;20922;-64
2022/01/21 05:00:28;;;;;;;5.50;3.05;;;;;;;27.11;17.76;97919.03;1719734;81;20911;-67
2022/01/21 05:02:56;;;;;;;6.62;4.03;;;;;;;27.22;17.60;97912.95;1746363;82;21155;-63
2022/01/21 05:05:24;;;;;;;6.30;3.40;;;;;;;27.10;17.81;97928.32;1711919;82;20964;-63
2022/01/21 05:07:52;;;;;;;8.93;3.35;;;;;;;27.14;17.12;97922.50;1736551;81;20990;-62
2022/01/21 05:10:18;;;;;;;13.88;3.83;;;;;;;26.94;17.71;97925.20;1717763;82;21961;-65
2022/01/21 05:12:45;;;;;;;3.47;2.50;;;;;;;27.11;17.55;97913.57;1737429;81;21597;-63
2022/01/21 05:15:18;;;;;;;7.55;2.98;;;;;;;27.04;17.63;97925.50;1742999;82;21168;-63
2022/01/21 05:17:48;;;;;;;8.88;3.70;;;;;;;27.04;17.56;97922.78;1723071;82;20896;-63
2022/01/21 05:20:14;;;;;;;6.12;3.47;;;;;;;27.29;17.46;97913.88;1666147;84;21002;-63
2022/01/21 05:22:42;;;;;;;7.00;3.15;;;;;;;27.46;17.09;97924.88;1679657;84;21567;-63
2022/01/21 05:25:16;;;;;;;5.85;3.22;;;;;;;22.73;24.45;97944.79;1735598;82;21084;-65
2022/01/21 05:27:38;;;;;;;6.10;2.85;;;;;;;19.78;25.65;97946.96;1739503;82;21092;-62
2022/01/21 05:30:06;;;;;;;4.90;2.70;;;;;;;19.24;26.10;97953.73;1741158;80;20982;-66
2022/01/21 05:32:35;;;;;;;9.50;2.45;;;;;;;19.07;25.92;97925.08;1705890;83;20915;-64
2022/01/21 05:35:21;;;;;;;5.67;3.05;;;;;;;18.95;30.05;97951.40;1718338;82;21040;-62
2022/01/21 05:37:47;;;;;;;5.60;2.80;;;;;;;18.82;26.98;97936.25;1694298;83;20887;-65
2022/01/21 05:40:17;;;;;;;5.87;3.10;;;;;;;18.59;26.73;97954.13;1707558;83;21178;-63
2022/01/21 05:42:54;;;;;;;4.78;3.35;;;;;;;18.43;26.75;97947.23;1703346;83;20974;-63
2022/01/21 05:48:39;;;;;;;6.28;3.00;;;;;;;18.67;26.69;97916.73;1683523;83;21035;-61
2022/01/21 05:51:23;;;;;;;5.08;3.00;;;;;;;18.81;26.21;97945.39;1589268;87;21211;-63
2022/01/21 05:54:09;;;;;;;6.58;3.40;;;;;;;18.99;27.46;97940.92;1691557;84;22020;-63
2022/01/21 05:56:56;;;;;;;6.42;3.67;;;;;;;19.15;30.00;97934.55;1719924;83;21002;-62
2022/01/21 05:59:31;;;;;;;4.72;2.75;;;;;;;18.97;27.46;97931.77;1719589;82;20932;-61
2022/01/21 06:01:57;;;;;;;6.05;3.33;;;;;;;19.13;26.31;97925.92;1696964;83;21006;-62
2022/01/21 06:04:23;;;;;;;6.75;3.02;;;;;;;19.29;31.20;97936.23;1702746;83;20960;-61
2022/01/21 06:06:50;;;;;;;10.48;3.22;;;;;;;19.73;31.79;97943.44;1710361;82;21361;-62
2022/01/21 06:09:16;;;;;;;6.70;3.83;;;;;;;19.69;30.62;97943.95;1694374;83;20939;-64
2022/01/21 06:11:42;;;;;;;7.05;3.95;;;;;;;19.79;30.42;97945.08;1698544;83;20959;-71
2022/01/21 06:14:09;;;;;;;7.50;4.05;;;;;;;18.17;31.17;97944.04;1706568;83;22346;-63
2022/01/21 06:16:38;;;;;;;6.87;3.85;;;;;;;17.49;31.75;97950.57;1701934;82;21011;-72
2022/01/21 06:19:03;;;;;;;6.22;3.25;;;;;;;18.36;35.06;97949.33;1703326;82;21161;-62
2022/01/21 06:21:30;;;;;;;9.08;3.45;;;;;;;17.77;33.27;97963.83;1706692;82;21402;-64
2022/01/21 06:23:57;;;;;;;4.50;3.10;;;;;;;17.32;32.36;97971.30;1695483;82;21129;-66
2022/01/21 06:26:23;;;;;;;5.33;2.95;;;;;;;16.79;34.12;97971.93;1712020;83;20985;-65
2022/01/21 06:28:50;;;;;;;4.30;2.87;;;;;;;16.68;32.45;97972.83;1703270;81;21077;-67
2022/01/21 06:31:16;;;;;;;5.37;3.60;;;;;;;16.70;35.03;97962.65;1716640;81;21105;-66
2022/01/21 06:33:43;;;;;;;7.85;3.30;;;;;;;16.46;32.76;97969.50;1708342;82;20932;-66
2022/01/21 06:36:09;;;;;;;8.53;3.70;;;;;;;16.71;34.16;97973.16;1716434;82;20999;-68
2022/01/21 06:38:36;;;;;;;5.85;3.58;;;;;;;16.77;32.41;97977.53;1710968;82;20917;-67
2022/01/21 06:41:03;;;;;;;6.12;3.47;;;;;;;16.52;32.01;97983.83;1703824;83;21019;-68
2022/01/21 06:43:29;;;;;;;4.75;3.25;;;;;;;16.37;35.84;97979.55;1720815;83;21778;-66
2022/01/21 06:45:56;;;;;;;6.47;3.75;;;;;;;16.58;32.02;97976.97;1725395;81;20920;-66
2022/01/21 06:48:22;;;;;;;4.75;3.42;;;;;;;16.26;31.82;97984.45;1716021;83;21095;-65
2022/01/21 06:50:48;;;;;;;4.87;3.08;;;;;;;16.36;33.46;97989.98;1715825;81;20929;-67
2022/01/21 06:53:15;;;;;;;4.37;3.22;;;;;;;16.25;33.66;97986.31;1725833;81;20964;-63
2022/01/21 06:55:41;;;;;;;5.35;3.42;;;;;;;16.22;35.68;97984.11;1721260;81;21084;-64
2022/01/21 06:58:07;;;;;;;8.18;4.05;;;;;;;16.51;39.64;97979.50;1724525;81;21762;-62
2022/01/21 07:00:34;;;;;;;4.72;2.72;;;;;;;17.11;36.15;97980.45;1717229;81;21122;-62
2022/01/21 07:03:01;;;;;;;6.78;3.37;;;;;;;16.95;34.09;97983.98;1714628;83;20889;-62
2022/01/21 07:05:29;;;;;;;6.75;3.12;;;;;;;16.93;32.18;97983.94;1709891;83;21564;-63
2022/01/21 07:07:57;;;;;;;6.30;3.02;;;;;;;16.83;31.54;97977.90;1707053;83;21704;-62
2022/01/21 07:10:25;;;;;;;5.50;2.95;;;;;;;16.02;34.33;97948.38;1710985;83;20987;-61
2022/01/21 07:12:52;;;;;;;6.67;3.20;;;;;;;15.92;36.27;97983.58;1709596;83;21007;-62
2022/01/21 07:15:19;;;;;;;3.90;2.65;;;;;;;15.77;32.71;97965.32;1718732;81;20924;-65
2022/01/21 07:17:46;;;;;;;4.67;2.83;;;;;;;15.52;32.34;97974.22;1727916;81;20964;-62
2022/01/21 07:20:15;;;;;;;6.10;2.98;;;;;;;15.48;37.23;97989.16;1724537;81;21842;-62
2022/01/21 07:22:42;;;;;;;5.03;2.95;;;;;;;15.53;32.58;97995.14;1719315;81;21477;-63
2022/01/21 07:25:08;;;;;;;5.53;3.22;;;;;;;15.46;32.21;97986.43;1726326;81;20893;-64
2022/01/21 07:27:36;;;;;;;5.83;3.33;;;;;;;15.51;32.66;97991.89;1724714;81;21595;-63
2022/01/21 07:30:04;;;;;;;7.90;3.30;;;;;;;15.52;32.24;97986.28;1718786;81;20908;-65
2022/01/21 07:32:31;;;;;;;4.67;3.02;;;;;;;15.44;31.66;97986.61;1724759;81;21149;-64
2022/01/21 07:34:58;;;;;;;6.65;3.80;;;;;;;15.49;31.67;97990.77;1743390;81;21013;-62
2022/01/21 07:37:24;;;;;;;5.97;3.58;;;;;;;15.55;31.81;97987.15;1698034;83;21006;-65
2022/01/21 07:39:50;;;;;;;9.35;3.90;;;;;;;15.59;31.79;98003.03;1739888;82;21610;-65
2022/01/21 07:42:17;;;;;;;3.58;2.77;;;;;;;15.70;31.23;97975.91;1678365;84;20911;-64
2022/01/21 07:44:43;;;;;;;4.17;2.67;;;;;;;15.61;30.94;97979.50;1693080;84;21815;-64
2022/01/21 07:47:10;;;;;;;4.72;2.87;;;;;;;15.70;31.30;97963.31;1698201;84;21061;-66
2022/01/21 07:49:36;;;;;;;3.98;2.27;;;;;;;15.93;31.12;97990.55;1696186;83;20997;-67
2022/01/21 07:52:03;;;;;;;3.85;2.02;;;;;;;16.02;31.07;97997.99;1693329;84;21001;-66
2022/01/21 07:54:30;;;;;;;3.33;2.30;;;;;;;16.09;31.05;98004.53;1690395;84;20918;-67
2022/01/21 07:56:56;;;;;;;4.67;2.83;;;;;;;16.21;35.29;98013.36;1697986;84;21180;-64
2022/01/21 07:59:23;;;;;;;6.03;2.80;;;;;;;16.55;33.96;98011.56;1708917;84;21538;-66
2022/01/21 08:01:49;;;;;;;5.10;2.70;;;;;;;17.09;38.47;98000.05;1699977;82;21061;-67
2022/01/21 08:04:15;;;;;;;4.67;2.37;;;;;;;16.50;32.55;98000.70;1696961;84;21965;-65
2022/01/21 08:06:42;;;;;;;6.90;2.17;;;;;;;16.34;32.99;98020.28;1698269;83;21578;-66
2022/01/21 08:09:08;;;;;;;7.03;3.25;;;;;;;16.23;32.51;98004.53;1721268;82;21141;-65
2022/01/21 08:11:35;;;;;;;3.52;2.60;;;;;;;16.18;39.14;98020.55;1693489;84;21069;-64
2022/01/21 08:14:01;;;;;;;8.58;2.85;;;;;;;19.68;32.42;98013.81;1706746;83;20882;-66
2022/01/21 08:16:27;;;;;;;4.97;2.87;;;;;;;19.73;37.22;98007.09;1716115;81;21414;-65
2022/01/21 08:18:54;;;;;;;5.72;3.00;;;;;;;19.01;37.38;97999.41;1728088;81;21103;-63
2022/01/21 08:21:21;;;;;;;3.08;2.15;;;;;;;18.67;34.14;98011.01;1698921;82;23367;-64
2022/01/21 08:23:50;;;;;;;7.33;2.72;;;;;;;19.07;35.77;98011.84;1709084;82;20954;-66
2022/01/21 08:26:20;;;;;;;6.60;3.20;;;;;;;18.90;33.31;98011.20;1703495;83;21002;-64
2022/01/21 08:28:46;;;;;;;4.33;2.70;;;;;;;18.84;52.03;98002.27;1708715;83;21446;-63
2022/01/21 08:31:13;;;;;;;4.70;3.20;;;;;;;21.51;36.75;98002.06;1702606;84;21089;-64
2022/01/21 08:33:40;;;;;;;4.72;2.87;;;;;;;22.11;40.28;98009.13;1716807;83;21122;-65
2022/01/21 08:36:10;;;;;;;6.42;3.70;;;;;;;20.79;38.17;98012.73;1722407;83;21009;-63
2022/01/21 08:38:38;;;;;;;6.00;2.90;;;;;;;19.57;37.71;98015.40;1712807;83;20990;-65
2022/01/21 08:41:04;;;;;;;5.47;3.40;;;;;;;28.22;29.78;98002.70;1708613;83;21485;-65
2022/01/21 08:43:30;;;;;;;6.03;3.33;;;;;;;27.38;28.63;98000.70;1718979;83;21068;-66
2022/01/21 08:45:57;;;;;;;5.40;3.55;;;;;;;26.86;32.40;98026.34;1707136;84;21141;-64
2022/01/21 08:48:23;;;;;;;9.75;3.60;;;;;;;27.44;28.65;98009.86;1696693;83;21085;-64
2022/01/21 08:50:50;;;;;;;8.85;3.77;;;;;;;27.91;28.13;98000.61;1699743;82;20910;-65
2022/01/21 08:56:01;;;;;;;8.33;4.05;;;;;;;27.40;26.33;98000.67;1699836;84;20994;-66
2022/01/21 08:58:27;;;;;;;5.87;3.87;;;;;;;27.09;32.80;98003.15;1701585;84;21091;-64
2022/01/21 09:00:54;;;;;;;5.67;3.85;;;;;;;34.72;25.16;97992.20;1701013;84;21036;-65
2022/01/21 09:03:20;;;;;;;11.53;4.62;;;;;;;34.30;22.32;97984.36;1690438;84;20929;-64
2022/01/21 09:05:51;;;;;;;14.55;4.10;;;;;;;31.69;25.77;97993.02;1709236;84;20997;-65
2022/01/21 09:08:18;;;;;;;7.40;3.95;;;;;;;34.36;21.84;97989.83;1702174;84;20978;-66
2022/01/21 09:10:46;;;;;;;5.22;3.22;;;;;;;33.64;24.22;97998.14;1695820;84;21174;-64
2022/01/21 09:13:12;;;;;;;10.55;3.30;;;;;;;33.64;27.42;98002.85;1692473;84;20965;-65
2022/01/21 09:15:38;;;;;;;6.17;3.75;;;;;;;34.09;20.04;97997.68;1717017;83;21073;-65
2022/01/21 09:18:05;;;;;;;9.38;3.85;;;;;;;35.97;21.56;97990.53;1713498;83;20962;-64
2022/01/21 09:20:33;;;;;;;5.03;3.35;;;;;;;33.46;17.46;98006.52;1695402;84;21092;-65
2022/01/21 09:23:02;;;;;;;9.85;3.58;;;;;;;28.35;22.65;98013.25;1705035;84;21435;-65
2022/01/21 09:25:29;;;;;;;5.37;3.42;;;;;;;27.12;24.34;98005.22;1696480;84;21059;-63
2022/01/21 09:27:55;;;;;;;5.72;3.30;;;;;;;26.95;25.77;98005.39;1706252;84;21005;-64
2022/01/21 09:30:22;;;;;;;5.55;3.00;;;;;;;28.55;24.82;98012.05;1697006;84;21735;-63
2022/01/21 09:32:48;;;;;;;6.72;3.92;;;;;;;29.44;30.92;98015.42;1691340;84;20973;-60
2022/01/21 09:35:16;;;;;;;7.05;3.62;;;;;;;25.01;28.38;98018.97;1703411;84;21196;-63
2022/01/21 09:37:42;;;;;;;7.60;3.42;;;;;;;24.88;25.43;98017.56;1706007;83;21041;-63
2022/01/21 09:40:11;;;;;;;10.27;3.90;;;;;;;24.55;28.15;98023.51;1712513;83;20978;-64
2022/01/21 09:42:37;;;;;;;6.40;3.45;;;;;;;22.41;27.51;98025.76;1715432;82;21299;-65
2022/01/21 09:45:09;;;;;;;9.45;4.15;;;;;;;20.92;29.65;98027.05;1719994;83;21009;-63
2022/01/21 09:47:48;;;;;;;6.35;3.50;;;;;;;20.48;59.53;98046.21;1715996;83;21143;-64
2022/01/21 09:50:20;;;;;;;5.15;3.52;;;;;;;20.55;53.81;98035.95;1709789;83;21006;-62
2022/01/21 09:52:51;;;;;;;6.75;3.98;;;;;;;20.26;33.50;98040.22;1697969;83;20926;-61
2022/01/21 09:55:21;;;;;;;7.92;4.87;;;;;;;19.43;33.57;98041.20;1704159;83;21209;-61
2022/01/21 09:57:49;;;;;;;7.47;4.50;;;;;;;19.55;37.49;98043.18;1707296;84;20953;-62
2022/01/21 10:00:17;;;;;;;7.58;3.60;;;;;;;18.84;34.92;98050.77;1700642;84;21238;-64
2022/01/21 10:02:45;;;;;;;9.03;3.92;;;;;;;21.26;30.60;98022.43;1693547;84;21012;-63
2022/01/21 10:05:11;;;;;;;6.17;4.37;;;;;;;20.72;31.23;98039.75;1696484;84;21024;-61
2022/01/21 10:07:40;;;;;;;7.95;4.72;;;;;;;19.16;38.65;98048.57;1703476;84;20958;-63
2022/01/21 10:10:08;;;;;;;8.25;4.45;;;;;;;18.65;55.47;98046.00;1707405;83;21064;-62
2022/01/21 10:12:38;;;;;;;7.78;4.40;;;;;;;19.00;38.17;98040.39;1704983;83;21983;-62
2022/01/21 10:15:07;;;;;;;6.10;4.25;;;;;;;18.58;38.44;98041.38;1707441;84;21590;-63
2022/01/21 15:30:35;;;;;;;11.15;4.05;;;;;;;18.62;38.43;98041.13;1711965;83;21582;-61
2022/01/21 15:33:02;;;;;;;8.28;3.98;;;;;;;18.62;38.43;98041.13;1705892;82;20931;-66
2022/01/21 15:35:28;;;;;;;5.45;4.05;;;;;;;16.12;39.46;98103.84;1718680;83;21103;-64
2022/01/21 15:37:55;;;;;;;7.28;4.00;;;;;;;16.40;40.13;98099.84;1707480;84;21124;-64
2022/01/21 15:40:22;;;;;;;7.35;3.70;;;;;;;21.61;31.92;98077.82;1709911;84;21013;-67
2022/01/21 15:42:48;;;;;;;5.37;3.47;;;;;;;20.58;29.97;98084.05;1710184;84;20990;-64
2022/01/21 15:45:15;;;;;;;6.80;3.75;;;;;;;19.37;53.12;98098.87;1722119;83;21098;-66
2022/01/21 15:47:42;;;;;;;8.48;4.30;;;;;;;19.35;31.28;98091.02;1706931;84;21013;-63
2022/01/21 15:50:11;;;;;;;5.62;3.67;;;;;;;19.01;31.83;98096.42;1698925;81;21575;-65
2022/01/21 15:52:38;;;;;;;8.05;4.80;;;;;;;18.35;32.00;98095.77;1710998;83;20939;-64
2022/01/21 15:55:06;;;;;;;6.28;3.42;;;;;;;18.16;32.02;98110.64;1724724;83;21470;-62
2022/01/21 15:57:32;;;;;;;6.85;4.20;;;;;;;24.20;24.85;98083.78;1732481;81;21058;-66
2022/01/21 15:59:59;;;;;;;10.28;4.70;;;;;;;22.61;27.19;98083.34;1720362;81;21592;-64
2022/01/21 16:02:27;;;;;;;7.55;5.17;;;;;;;21.23;28.53;98095.98;1720066;81;21173;-63
2022/01/21 16:04:54;;;;;;;7.72;4.67;;;;;;;20.72;31.92;98097.85;1731961;81;20975;-62
2022/01/21 16:07:20;;;;;;;7.35;4.35;;;;;;;20.55;28.46;98074.30;1733428;81;21095;-65
2022/01/21 16:09:47;;;;;;;4.95;3.67;;;;;;;20.43;38.06;98085.37;1717525;83;20935;-63
2022/01/21 16:12:16;;;;;;;5.87;3.70;;;;;;;20.67;43.93;98090.55;1711634;83;21465;-64
2022/01/21 16:14:42;;;;;;;6.93;4.33;;;;;;;23.66;31.79;98084.12;1720967;81;21183;-65
2022/01/21 16:17:09;;;;;;;7.12;4.10;;;;;;;22.18;28.36;98095.51;1730184;81;21035;-67
2022/01/21 16:19:38;;;;;;;5.83;3.85;;;;;;;20.94;41.21;98099.21;1726733;81;21004;-67
2022/01/21 16:22:05;;;;;;;8.20;4.15;;;;;;;28.80;51.05;98059.73;1714558;83;20924;-66
2022/01/21 16:24:31;;;;;;;7.85;4.33;;;;;;;27.13;27.61;98077.81;1721120;83;20940;-66
2022/01/21 16:26:57;;;;;;;6.37;4.45;;;;;;;24.91;28.24;98084.42;1713597;83;21115;-68
2022/01/21 16:29:24;;;;;;;7.37;4.33;;;;;;;24.50;33.00;98091.54;1719715;83;21046;-66
2022/01/21 16:31:50;;;;;;;7.05;4.28;;;;;;;24.36;30.42;98091.99;1726776;81;20913;-65
2022/01/21 16:34:19;;;;;;;5.42;4.03;;;;;;;23.68;30.48;98096.31;1713395;83;21475;-65
2022/01/21 16:36:46;;;;;;;7.25;4.08;;;;;;;23.86;29.07;98080.63;1713459;83;21480;-65
2022/01/21 16:39:13;;;;;;;5.30;3.85;;;;;;;24.27;25.84;98085.61;1705617;83;21154;-65
2022/01/21 16:41:40;;;;;;;6.67;3.62;;;;;;;24.73;45.62;98088.48;1710816;83;20909;-65
2022/01/21 16:44:06;;;;;;;5.08;4.03;;;;;;;25.11;26.85;98081.91;1717390;83;20924;-67
2022/01/21 16:46:35;;;;;;;8.20;4.12;;;;;;;25.12;26.86;98083.54;1721336;81;20977;-67
2022/01/21 16:49:03;;;;;;;8.18;3.62;;;;;;;25.22;25.39;98078.47;1709408;83;20973;-63
2022/01/21 16:51:32;;;;;;;8.83;4.83;;;;;;;25.02;100.00;98095.41;1716158;83;21032;-68
2022/01/21 16:54:00;;;;;;;5.90;3.98;;;;;;;25.42;34.33;98079.50;1717176;83;20906;-66
2022/01/21 16:56:28;;;;;;;6.67;4.30;;;;;;;25.79;27.15;98080.72;1712582;83;21454;-67
2022/01/21 16:58:55;;;;;;;5.35;3.72;;;;;;;25.18;25.14;98077.70;1714186;83;21541;-65
2022/01/21 17:01:22;;;;;;;6.50;4.03;;;;;;;23.87;28.66;98086.34;1725690;81;20887;-68
2022/01/21 17:03:49;;;;;;;6.53;3.75;;;;;;;23.45;27.43;98090.85;1708694;83;21152;-67
2022/01/21 17:06:18;;;;;;;6.72;4.22;;;;;;;23.32;32.77;98096.37;1714010;83;20932;-65
2022/01/21 17:08:45;;;;;;;5.80;3.95;;;;;;;23.38;26.67;98085.77;1709611;83;20995;-66
2022/01/21 17:11:11;;;;;;;5.72;3.58;;;;;;;22.83;26.50;98085.67;1719408;83;21490;-69
2022/01/21 17:13:38;;;;;;;4.95;3.45;;;;;;;22.71;27.32;98098.20;1723840;81;20937;-70
2022/01/21 17:16:05;;;;;;;4.47;3.37;;;;;;;22.52;27.11;98096.41;1721984;81;21158;-66
2022/01/21 17:18:32;;;;;;;6.78;4.03;;;;;;;22.87;25.85;98090.77;1716300;83;21438;-65
2022/01/21 17:20:59;;;;;;;4.28;3.02;;;;;;;23.01;25.42;98091.77;1730901;81;20989;-62
2022/01/21 17:23:25;;;;;;;5.55;3.30;;;;;;;22.41;29.23;98104.33;1720965;83;20958;-67
2022/01/21 17:25:55;;;;;;;8.65;4.20;;;;;;;22.78;26.27;98096.55;1734985;82;21057;-61
2022/01/21 17:28:22;;;;;;;6.75;4.40;;;;;;;23.01;26.12;98101.80;1733758;80;21156;-64
2022/01/21 17:30:48;;;;;;;6.45;3.52;;;;;;;22.94;100.00;98099.95;1725326;81;20949;-62
2022/01/21 17:33:15;;;;;;;5.37;4.35;;;;;;;23.04;32.25;98103.41;1706429;83;21033;-63
2022/01/21 17:35:41;;;;;;;6.35;4.45;;;;;;;22.57;29.84;98093.13;1736110;82;21539;-63